Terminal Aerodrome Forecast
Issued by NWS Detroit/Pontiac, MI

Home | Current Version | Previous Version | Text Only | Print | Product List | Glossary On
Versions: 1 2 3 4 5 6 7 8 9 10 11 12 13 14
464
FTUS43 KDTX 242341
TAFFNT
TAF
KFNT 242341Z 2500/2524 20010KT P6SM BKN040 OVC080
      TEMPO 2500/2502 5SM SHRA OVC020
     FM250200 20005KT 4SM BR BKN020 OVC040
     FM250900 24003KT 3SM BR SCT020
     FM251400 23005KT P6SM BKN025=

USA.gov is the U.S. government's official web portal to all federal, state and local government web resources and services.